createdAt,value
2017-11-26T00:00:37.072Z,2.30
2017-11-26T00:03:05.357Z,2.10
2017-11-26T00:05:33.990Z,2.10
2017-11-26T00:08:01.461Z,2.10
2017-11-26T00:10:29.251Z,2.00
2017-11-26T00:12:56.711Z,2.00
2017-11-26T00:15:25.044Z,1.90
2017-11-26T00:17:52.506Z,1.90
2017-11-26T00:20:20.019Z,1.90
2017-11-26T00:22:48.255Z,1.80
2017-11-26T00:25:15.736Z,1.80
2017-11-26T00:27:43.983Z,1.80
2017-11-26T00:30:11.475Z,1.80
2017-11-26T00:32:39.725Z,1.70
2017-11-26T00:35:07.200Z,1.70
2017-11-26T00:37:34.672Z,1.70
2017-11-26T00:40:02.916Z,1.70
2017-11-26T00:42:30.389Z,1.60
2017-11-26T00:44:57.875Z,1.70
2017-11-26T00:47:26.124Z,1.70
2017-11-26T00:49:53.591Z,1.70
2017-11-26T00:52:21.104Z,1.80
2017-11-26T00:54:48.574Z,1.80
2017-11-26T00:57:16.075Z,1.70
2017-11-26T00:59:44.326Z,1.70
2017-11-26T01:02:11.808Z,1.70
2017-11-26T01:04:40.079Z,1.60
2017-11-26T01:07:07.545Z,1.60
2017-11-26T01:09:36.242Z,1.70
2017-11-26T01:12:04.459Z,1.70
2017-11-26T01:14:31.946Z,1.70
2017-11-26T01:16:59.435Z,1.70
2017-11-26T01:19:27.683Z,1.80
2017-11-26T01:21:55.209Z,1.70
2017-11-26T01:24:22.715Z,1.80
2017-11-26T01:26:50.965Z,1.70
2017-11-26T01:29:18.438Z,1.70
2017-11-26T01:31:45.932Z,1.70
2017-11-26T01:34:14.162Z,1.60
2017-11-26T01:36:41.684Z,1.60
2017-11-26T01:39:09.170Z,1.70
2017-11-26T01:41:36.640Z,1.70
2017-11-26T01:44:04.136Z,1.70
2017-11-26T01:46:31.654Z,1.70
2017-11-26T01:48:59.113Z,1.80
2017-11-26T01:51:26.615Z,1.80
2017-11-26T01:53:54.877Z,1.80
2017-11-26T01:56:22.383Z,1.70
2017-11-26T01:58:50.136Z,1.70
2017-11-26T02:01:17.604Z,1.70
2017-11-26T02:03:57.030Z,1.60
2017-11-26T02:06:24.512Z,1.60
2017-11-26T02:08:52.127Z,1.60
2017-11-26T02:11:20.372Z,1.60
2017-11-26T02:13:47.838Z,1.60
2017-11-26T02:16:15.370Z,1.70
2017-11-26T02:18:42.867Z,1.70
2017-11-26T02:21:10.394Z,1.70
2017-11-26T02:23:38.185Z,1.80
2017-11-26T02:26:05.689Z,1.90
2017-11-26T02:28:33.155Z,1.90
2017-11-26T02:31:00.644Z,2.00
2017-11-26T02:33:40.162Z,2.10
2017-11-26T02:36:19.121Z,2.10
2017-11-26T02:38:46.630Z,2.20
2017-11-26T02:41:14.162Z,2.30
2017-11-26T02:43:41.642Z,2.30
2017-11-26T02:46:09.875Z,2.30
2017-11-26T02:48:37.347Z,2.30
2017-11-26T02:51:04.844Z,2.40
2017-11-26T02:53:32.332Z,2.40
2017-11-26T02:55:59.813Z,2.40
2017-11-26T02:58:27.293Z,2.50
2017-11-26T03:00:55.608Z,2.50
2017-11-26T03:03:23.073Z,2.50
2017-11-26T03:05:50.546Z,2.60
2017-11-26T03:08:18.012Z,2.60
2017-11-26T03:10:45.493Z,2.60
2017-11-26T03:13:12.989Z,2.60
2017-11-26T03:15:40.578Z,2.50
2017-11-26T03:18:08.124Z,2.40
2017-11-26T03:20:35.642Z,2.30
2017-11-26T03:23:03.893Z,2.00
2017-11-26T03:25:31.356Z,2.00
2017-11-26T03:27:58.855Z,1.90
2017-11-26T03:30:27.089Z,1.80
2017-11-26T03:32:54.616Z,1.80
2017-11-26T03:35:22.096Z,1.70
2017-11-26T03:37:49.607Z,1.70
2017-11-26T03:40:17.862Z,1.60
2017-11-26T03:42:45.838Z,1.60
2017-11-26T03:45:14.089Z,1.50
2017-11-26T03:47:41.568Z,1.50
2017-11-26T03:50:09.044Z,1.50
2017-11-26T03:52:37.707Z,1.50
2017-11-26T03:55:05.282Z,1.50
2017-11-26T03:57:33.512Z,1.40
2017-11-26T04:00:01.041Z,1.40
2017-11-26T04:02:28.499Z,1.40
2017-11-26T04:04:55.991Z,1.40
2017-11-26T04:07:23.459Z,1.40
2017-11-26T04:09:50.962Z,1.40
2017-11-26T04:12:19.188Z,1.40
2017-11-26T04:14:46.643Z,1.40
2017-11-26T04:17:14.225Z,1.30
2017-11-26T04:19:41.772Z,1.30
2017-11-26T04:22:09.262Z,1.30
2017-11-26T04:24:37.516Z,1.30
2017-11-26T04:27:05.112Z,1.30
2017-11-26T04:29:33.340Z,1.40
2017-11-26T04:32:00.808Z,1.40
2017-11-26T04:34:28.300Z,1.30
2017-11-26T04:36:56.548Z,1.40
2017-11-26T04:39:24.014Z,1.30
2017-11-26T04:41:51.483Z,1.30
2017-11-26T04:44:18.973Z,1.30
2017-11-26T04:46:46.452Z,1.30
2017-11-26T04:49:13.927Z,1.40
2017-11-26T04:51:41.395Z,1.30
2017-11-26T04:54:08.868Z,1.40
2017-11-26T04:56:37.147Z,1.40
2017-11-26T04:59:04.632Z,1.40
2017-11-26T05:01:32.106Z,1.40
2017-11-26T05:03:59.583Z,1.40
2017-11-26T05:06:27.067Z,1.40
2017-11-26T05:08:54.598Z,1.30
2017-11-26T05:11:22.059Z,1.40
2017-11-26T05:13:49.549Z,1.50
2017-11-26T05:16:17.081Z,1.50
2017-11-26T05:18:44.548Z,1.50
2017-11-26T05:21:12.071Z,1.60
2017-11-26T05:23:39.572Z,1.70
2017-11-26T05:26:07.079Z,1.60
2017-11-26T05:28:37.307Z,1.60
2017-11-26T05:31:04.988Z,1.60
2017-11-26T05:33:32.471Z,1.60
2017-11-26T05:36:00.368Z,1.80
2017-11-26T05:38:28.660Z,1.70
2017-11-26T05:40:56.904Z,1.80
2017-11-26T05:43:24.413Z,1.70
2017-11-26T05:45:51.892Z,1.70
2017-11-26T05:48:20.239Z,1.70
2017-11-26T05:50:47.719Z,1.60
2017-11-26T05:53:15.209Z,1.60
2017-11-26T05:55:42.675Z,1.60
2017-11-26T05:58:10.212Z,1.70
2017-11-26T06:00:39.699Z,1.70
2017-11-26T06:03:07.278Z,1.70
2017-11-26T06:05:34.762Z,1.70
2017-11-26T06:08:02.266Z,1.70
2017-11-26T06:10:29.760Z,1.70
2017-11-26T06:12:57.312Z,1.70
2017-11-26T06:15:24.799Z,1.70
2017-11-26T06:17:52.287Z,1.70
2017-11-26T06:20:20.527Z,1.60
2017-11-26T06:22:48.017Z,1.60
2017-11-26T06:25:16.256Z,1.70
2017-11-26T06:27:43.723Z,1.70
2017-11-26T06:30:11.255Z,1.70
2017-11-26T06:32:38.727Z,1.70
2017-11-26T06:35:06.236Z,1.70
2017-11-26T06:37:34.776Z,1.70
2017-11-26T06:40:02.278Z,1.70
2017-11-26T06:42:30.518Z,1.70
2017-11-26T06:44:58.001Z,1.70
2017-11-26T06:47:26.240Z,1.70
2017-11-26T06:49:53.730Z,1.70
2017-11-26T06:52:21.212Z,1.70
2017-11-26T06:54:48.686Z,1.70
2017-11-26T06:57:16.233Z,1.70
2017-11-26T06:59:43.738Z,1.70
2017-11-26T07:02:11.195Z,1.70
2017-11-26T07:04:38.669Z,1.80
2017-11-26T07:07:06.160Z,1.90
2017-11-26T07:09:34.400Z,1.90
2017-11-26T07:12:01.883Z,1.90
2017-11-26T07:14:30.119Z,2.00
2017-11-26T07:16:57.622Z,2.00
2017-11-26T07:19:25.883Z,2.10
2017-11-26T07:21:53.384Z,2.10
2017-11-26T07:24:20.848Z,2.20
2017-11-26T07:26:48.357Z,2.20
2017-11-26T07:29:15.872Z,2.20
2017-11-26T07:31:43.360Z,2.30
2017-11-26T07:34:10.841Z,2.30
2017-11-26T07:36:39.098Z,2.40
2017-11-26T07:39:06.612Z,2.30
2017-11-26T07:41:34.068Z,2.40
2017-11-26T07:44:01.596Z,2.40
2017-11-26T07:46:29.908Z,2.50
2017-11-26T07:48:57.435Z,2.50
2017-11-26T07:51:24.960Z,2.50
2017-11-26T07:53:52.442Z,2.60
2017-11-26T07:56:19.938Z,2.60
2017-11-26T07:58:47.399Z,2.60
2017-11-26T08:01:14.907Z,2.60
2017-11-26T08:03:42.389Z,2.70
2017-11-26T08:06:09.865Z,2.70
2017-11-26T08:08:38.143Z,2.70
2017-11-26T08:11:06.428Z,2.80
2017-11-26T08:13:33.909Z,2.80
2017-11-26T08:16:01.432Z,2.80
2017-11-26T08:18:29.794Z,2.90
2017-11-26T08:20:57.268Z,2.90
2017-11-26T08:23:25.532Z,2.90
2017-11-26T08:25:53.011Z,2.90
2017-11-26T08:28:20.541Z,3.00
2017-11-26T08:30:49.600Z,3.00
2017-11-26T08:33:17.113Z,3.00
2017-11-26T08:35:45.372Z,3.10
2017-11-26T08:38:13.744Z,3.10
2017-11-26T08:40:41.304Z,3.10
2017-11-26T08:43:08.790Z,3.20
2017-11-26T08:45:37.066Z,3.20
2017-11-26T08:48:05.330Z,3.30
2017-11-26T08:50:33.586Z,3.30
2017-11-26T08:53:01.088Z,3.30
2017-11-26T08:55:29.330Z,3.50
2017-11-26T08:57:56.872Z,3.50
2017-11-26T09:00:24.356Z,3.50
2017-11-26T09:02:51.829Z,3.60
2017-11-26T09:05:20.116Z,3.80
2017-11-26T09:07:48.366Z,3.80
2017-11-26T09:10:15.832Z,3.80
2017-11-26T09:12:43.350Z,3.80
2017-11-26T09:15:10.966Z,3.80
2017-11-26T09:17:38.448Z,3.90
2017-11-26T09:20:05.932Z,3.90
2017-11-26T09:22:33.429Z,3.90
2017-11-26T09:25:00.906Z,3.90
2017-11-26T09:27:28.375Z,4.00
2017-11-26T09:29:55.855Z,3.90
2017-11-26T09:32:23.316Z,3.90
2017-11-26T09:34:50.835Z,3.90
2017-11-26T09:37:18.344Z,4.00
2017-11-26T09:39:45.853Z,4.00
2017-11-26T09:42:13.413Z,4.10
2017-11-26T09:44:40.907Z,4.00
2017-11-26T09:47:08.375Z,4.00
2017-11-26T09:49:35.866Z,4.10
2017-11-26T09:52:03.481Z,4.20
2017-11-26T09:54:31.012Z,4.10
2017-11-26T09:56:59.266Z,4.10
2017-11-26T09:59:26.790Z,4.10
2017-11-26T10:01:54.300Z,4.10
2017-11-26T10:04:22.539Z,4.20
2017-11-26T10:06:50.056Z,4.10
2017-11-26T10:09:17.533Z,4.20
2017-11-26T10:11:45.032Z,4.30
2017-11-26T10:14:12.541Z,4.20
2017-11-26T10:16:40.008Z,4.20
2017-11-26T10:19:07.504Z,4.30
2017-11-26T10:21:35.162Z,4.20
2017-11-26T10:24:02.691Z,4.30
2017-11-26T10:26:30.177Z,4.20
2017-11-26T10:28:57.661Z,4.10
2017-11-26T10:31:25.923Z,4.10
2017-11-26T10:33:54.941Z,4.20
2017-11-26T10:36:23.189Z,4.30
2017-11-26T10:38:50.734Z,4.20
2017-11-26T10:41:18.221Z,4.30
2017-11-26T10:43:46.626Z,4.30
2017-11-26T10:46:14.130Z,4.30
2017-11-26T10:48:41.836Z,4.30
2017-11-26T10:51:10.089Z,4.30
2017-11-26T10:53:37.601Z,4.30
2017-11-26T10:56:05.176Z,4.30
2017-11-26T10:58:32.640Z,4.30
2017-11-26T11:01:00.137Z,4.40
2017-11-26T11:03:27.660Z,4.40
2017-11-26T11:05:55.157Z,4.40
2017-11-26T11:08:22.623Z,4.50
2017-11-26T11:10:50.907Z,4.60
2017-11-26T11:13:19.187Z,4.70
2017-11-26T11:15:47.438Z,4.80
2017-11-26T11:18:14.908Z,4.80
2017-11-26T11:20:43.165Z,4.90
2017-11-26T11:23:10.684Z,4.90
2017-11-26T11:25:38.222Z,5.00
2017-11-26T11:28:05.660Z,5.10
2017-11-26T11:30:33.924Z,5.10
2017-11-26T11:33:01.402Z,5.10
2017-11-26T11:35:29.960Z,5.20
2017-11-26T11:37:57.503Z,5.20
2017-11-26T11:40:25.057Z,5.20
2017-11-26T11:42:52.569Z,5.20
2017-11-26T11:45:20.046Z,5.00
2017-11-26T11:47:47.531Z,4.80
2017-11-26T11:50:15.008Z,4.70
2017-11-26T11:52:42.508Z,4.70
2017-11-26T11:55:10.806Z,4.80
2017-11-26T11:57:38.288Z,4.80
2017-11-26T12:00:05.785Z,4.90
2017-11-26T12:02:34.024Z,4.90
2017-11-26T12:05:01.528Z,4.80
2017-11-26T12:07:29.777Z,4.70
2017-11-26T12:09:57.262Z,4.70
2017-11-26T12:12:25.501Z,4.70
2017-11-26T12:14:53.020Z,4.70
2017-11-26T12:17:20.793Z,4.70
2017-11-26T12:19:48.298Z,4.60
2017-11-26T12:22:15.853Z,4.60
2017-11-26T12:24:43.366Z,4.70
2017-11-26T12:27:11.105Z,4.70
2017-11-26T12:29:39.369Z,4.70
2017-11-26T12:32:07.647Z,4.90
2017-11-26T12:34:35.116Z,4.90
2017-11-26T12:37:03.414Z,5.10
2017-11-26T12:39:30.912Z,5.10
2017-11-26T12:41:58.420Z,5.20
2017-11-26T12:44:26.688Z,5.10
2017-11-26T12:46:55.002Z,5.10
2017-11-26T12:49:22.835Z,5.10
2017-11-26T12:51:51.127Z,5.10
2017-11-26T12:54:18.693Z,5.10
2017-11-26T12:56:46.185Z,5.00
2017-11-26T12:59:14.305Z,5.00
2017-11-26T13:01:41.795Z,5.10
2017-11-26T13:04:09.284Z,5.10
2017-11-26T13:06:36.789Z,5.20
2017-11-26T13:09:04.270Z,5.30
2017-11-26T13:11:31.750Z,5.30
2017-11-26T13:13:59.256Z,5.30
2017-11-26T13:16:27.555Z,5.20
2017-11-26T13:18:55.076Z,5.20
2017-11-26T13:21:23.352Z,5.00
2017-11-26T13:23:50.830Z,4.90
2017-11-26T13:26:19.081Z,4.80
2017-11-26T13:28:47.513Z,4.80
2017-11-26T13:31:15.258Z,4.80
2017-11-26T13:33:42.998Z,4.90
2017-11-26T13:36:10.686Z,4.90
2017-11-26T13:38:38.972Z,5.20
2017-11-26T13:41:06.423Z,5.20
2017-11-26T13:43:33.965Z,5.10
2017-11-26T13:46:02.221Z,5.00
2017-11-26T13:48:29.818Z,5.00
2017-11-26T13:50:58.073Z,5.00
2017-11-26T13:53:25.591Z,5.00
2017-11-26T13:55:53.098Z,5.00
2017-11-26T13:58:21.354Z,5.00
2017-11-26T14:00:48.865Z,5.00
2017-11-26T14:03:16.357Z,5.00
2017-11-26T14:05:43.882Z,4.90
2017-11-26T14:08:11.393Z,4.90
2017-11-26T14:10:38.874Z,4.90
2017-11-26T14:13:07.164Z,4.90
2017-11-26T14:15:34.775Z,4.90
2017-11-26T14:18:02.253Z,4.90
2017-11-26T14:20:29.756Z,4.90
2017-11-26T14:22:57.328Z,4.90
2017-11-26T14:25:24.797Z,4.80
2017-11-26T14:27:52.405Z,4.80
2017-11-26T14:30:20.648Z,4.80
2017-11-26T14:32:48.156Z,4.80
2017-11-26T14:35:16.456Z,4.80
2017-11-26T14:37:44.050Z,4.80
2017-11-26T14:40:11.559Z,4.80
2017-11-26T14:42:39.097Z,4.80
2017-11-26T14:45:07.625Z,4.80
2017-11-26T14:47:35.312Z,4.70
2017-11-26T14:50:02.794Z,4.70
2017-11-26T14:52:31.114Z,4.60
2017-11-26T14:54:58.626Z,4.60
2017-11-26T14:57:26.140Z,4.60
2017-11-26T14:59:53.617Z,4.60
2017-11-26T15:02:21.251Z,4.60
2017-11-26T15:04:48.736Z,4.60
2017-11-26T15:07:16.279Z,4.60
2017-11-26T15:09:43.759Z,4.50
2017-11-26T15:12:11.260Z,4.40
2017-11-26T15:14:39.495Z,4.20
2017-11-26T15:17:07.064Z,4.20
2017-11-26T15:19:34.617Z,4.10
2017-11-26T15:22:02.088Z,4.00
2017-11-26T15:24:30.345Z,3.90
2017-11-26T15:26:57.984Z,3.90
2017-11-26T15:29:25.508Z,3.90
2017-11-26T15:31:53.782Z,3.80
2017-11-26T15:34:22.026Z,3.70
2017-11-26T15:36:49.480Z,3.70
2017-11-26T15:39:17.178Z,3.70
2017-11-26T15:41:46.091Z,3.70
2017-11-26T15:44:13.943Z,3.70
2017-11-26T15:46:41.502Z,3.70
2017-11-26T15:49:09.732Z,3.80
2017-11-26T15:51:37.213Z,3.80
2017-11-26T15:54:04.711Z,3.80
2017-11-26T15:56:32.281Z,3.80
2017-11-26T15:58:59.768Z,3.80
2017-11-26T16:01:27.257Z,3.80
2017-11-26T16:03:54.737Z,3.80
2017-11-26T16:06:22.985Z,3.90
2017-11-26T16:08:50.471Z,3.90
2017-11-26T16:11:18.749Z,3.80
2017-11-26T16:13:47.118Z,3.80
2017-11-26T16:16:15.372Z,3.70
2017-11-26T16:18:42.883Z,3.70
2017-11-26T16:21:10.393Z,3.70
2017-11-26T16:23:37.875Z,3.70
2017-11-26T16:26:05.435Z,3.70
2017-11-26T16:28:33.704Z,3.80
2017-11-26T16:31:01.281Z,3.80
2017-11-26T16:33:28.841Z,3.90
2017-11-26T16:35:56.376Z,3.90
2017-11-26T16:38:23.905Z,3.90
2017-11-26T16:40:51.375Z,3.90
2017-11-26T16:43:18.839Z,3.90
2017-11-26T16:45:46.353Z,3.90
2017-11-26T16:48:13.853Z,3.90
2017-11-26T16:50:41.397Z,3.80
2017-11-26T16:53:08.917Z,3.80
2017-11-26T16:55:37.183Z,3.80
2017-11-26T16:58:05.417Z,3.80
2017-11-26T17:00:32.935Z,3.80
2017-11-26T17:03:00.445Z,3.90
2017-11-26T17:05:27.940Z,3.90
2017-11-26T17:07:56.264Z,3.90
2017-11-26T17:10:23.737Z,3.90
2017-11-26T17:12:51.239Z,3.90
2017-11-26T17:15:19.488Z,4.00
2017-11-26T17:17:47.021Z,4.00
2017-11-26T17:20:14.537Z,4.00
2017-11-26T17:22:43.242Z,4.00
2017-11-26T17:25:12.096Z,4.00
2017-11-26T17:27:40.424Z,3.90
2017-11-26T17:30:07.906Z,4.00
2017-11-26T17:32:36.356Z,3.90
2017-11-26T17:35:03.851Z,3.80
2017-11-26T17:37:31.484Z,3.80
2017-11-26T17:39:58.987Z,3.80
2017-11-26T17:42:27.323Z,3.70
2017-11-26T17:44:54.861Z,3.70
2017-11-26T17:47:22.381Z,3.60
2017-11-26T17:49:51.512Z,3.40
2017-11-26T17:52:19.096Z,3.40
2017-11-26T17:54:46.722Z,3.30
2017-11-26T17:57:15.771Z,3.30
2017-11-26T17:59:43.235Z,3.20
2017-11-26T18:02:10.729Z,3.20
2017-11-26T18:04:38.984Z,3.10
2017-11-26T18:07:08.232Z,3.00
2017-11-26T18:09:35.824Z,3.00
2017-11-26T18:12:04.209Z,3.10
2017-11-26T18:14:31.844Z,3.10
2017-11-26T18:16:59.451Z,3.20
2017-11-26T18:19:26.934Z,3.20
2017-11-26T18:21:55.248Z,3.20
2017-11-26T18:24:22.842Z,3.20
2017-11-26T18:26:50.350Z,3.20
2017-11-26T18:29:17.872Z,3.20
2017-11-26T18:31:45.358Z,3.20
2017-11-26T18:34:12.907Z,3.20
2017-11-26T18:36:44.611Z,3.20
2017-11-26T18:39:12.397Z,3.30
2017-11-26T18:41:41.016Z,3.30
2017-11-26T18:44:08.497Z,3.30
2017-11-26T18:46:36.017Z,3.30
2017-11-26T18:49:04.207Z,3.30
2017-11-26T18:51:32.443Z,3.30
2017-11-26T18:53:59.936Z,3.30
2017-11-26T18:56:27.731Z,3.30
2017-11-26T18:58:55.286Z,3.30
2017-11-26T19:01:22.858Z,3.40
2017-11-26T19:03:50.345Z,3.50
2017-11-26T19:06:17.878Z,3.60
2017-11-26T19:08:45.489Z,3.60
2017-11-26T19:11:13.739Z,3.70
2017-11-26T19:13:41.280Z,3.70
2017-11-26T19:16:08.747Z,3.80
2017-11-26T19:18:36.238Z,3.80
2017-11-26T19:21:03.778Z,3.90
2017-11-26T19:23:31.335Z,3.90
2017-11-26T19:25:58.856Z,4.00
2017-11-26T19:28:26.489Z,4.00
2017-11-26T19:30:54.836Z,4.00
2017-11-26T19:33:22.322Z,4.00
2017-11-26T19:35:49.801Z,4.00
2017-11-26T19:38:18.120Z,4.10
2017-11-26T19:40:45.694Z,4.00
2017-11-26T19:43:13.332Z,4.10
2017-11-26T19:45:41.158Z,4.10
2017-11-26T19:48:09.418Z,4.10
2017-11-26T19:50:36.991Z,4.20
2017-11-26T19:53:05.440Z,4.10
2017-11-26T19:55:33.606Z,4.10
2017-11-26T19:58:01.290Z,4.10
2017-11-26T20:00:28.913Z,4.10
2017-11-26T20:02:56.465Z,4.10
2017-11-26T20:05:24.264Z,4.10
2017-11-26T20:07:55.024Z,4.20
2017-11-26T20:10:23.292Z,4.20
2017-11-26T20:12:51.079Z,4.20
2017-11-26T20:15:18.604Z,4.10
2017-11-26T20:17:46.158Z,4.10
2017-11-26T20:20:13.834Z,4.10
2017-11-26T20:22:41.463Z,4.10
2017-11-26T20:25:08.941Z,4.10
2017-11-26T20:27:36.437Z,4.20
2017-11-26T20:30:03.927Z,4.20
2017-11-26T20:32:31.570Z,4.20
2017-11-26T20:34:59.084Z,4.20
2017-11-26T20:37:26.565Z,4.20
2017-11-26T20:39:54.088Z,4.20
2017-11-26T20:42:21.572Z,4.30
2017-11-26T20:44:49.204Z,4.20
2017-11-26T20:47:16.921Z,4.20
2017-11-26T20:49:44.414Z,4.20
2017-11-26T20:52:11.895Z,4.20
2017-11-26T20:54:39.718Z,4.20
2017-11-26T20:57:07.354Z,4.10
2017-11-26T20:59:35.918Z,4.00
2017-11-26T21:02:03.878Z,4.00
2017-11-26T21:04:31.396Z,3.80
2017-11-26T21:06:59.677Z,3.70
2017-11-26T21:09:27.928Z,3.70
2017-11-26T21:11:55.506Z,3.70
2017-11-26T21:14:23.861Z,3.70
2017-11-26T21:16:51.399Z,3.70
2017-11-26T21:19:18.876Z,3.70
2017-11-26T21:21:46.473Z,3.70
2017-11-26T21:24:14.004Z,3.60
2017-11-26T21:26:42.338Z,3.40
2017-11-26T21:29:11.168Z,3.40
2017-11-26T21:31:38.691Z,3.40
2017-11-26T21:34:06.870Z,3.40
2017-11-26T21:36:34.379Z,3.30
2017-11-26T21:39:03.312Z,3.20
2017-11-26T21:41:30.806Z,3.20
2017-11-26T21:43:58.314Z,3.20
2017-11-26T21:46:25.895Z,3.20
2017-11-26T21:48:55.464Z,3.20
2017-11-26T21:51:23.045Z,3.30
2017-11-26T21:53:50.549Z,3.30
2017-11-26T21:56:18.013Z,3.20
2017-11-26T21:58:45.601Z,3.20
2017-11-26T22:01:13.381Z,3.10
2017-11-26T22:03:41.858Z,3.10
2017-11-26T22:06:10.095Z,3.10
2017-11-26T22:08:38.034Z,3.10
2017-11-26T22:11:05.930Z,3.10
2017-11-26T22:13:35.497Z,3.10
2017-11-26T22:16:04.619Z,3.00
2017-11-26T22:18:32.345Z,3.10
2017-11-26T22:21:01.082Z,3.10
2017-11-26T22:23:28.906Z,3.10
2017-11-26T22:25:57.945Z,3.10
2017-11-26T22:28:26.065Z,3.20
2017-11-26T22:30:54.262Z,3.30
2017-11-26T22:33:21.744Z,3.20
2017-11-26T22:35:51.252Z,3.20
2017-11-26T22:38:18.742Z,3.30
2017-11-26T22:40:47.080Z,3.30
2017-11-26T22:43:15.103Z,3.30
2017-11-26T22:45:43.372Z,3.40
2017-11-26T22:48:12.665Z,3.40
2017-11-26T22:50:41.853Z,3.50
2017-11-26T22:53:09.354Z,3.50
2017-11-26T22:55:36.854Z,3.50
2017-11-26T22:58:04.331Z,3.50
2017-11-26T23:00:31.853Z,3.50
2017-11-26T23:02:59.507Z,3.50
2017-11-26T23:05:28.113Z,3.60
2017-11-26T23:07:57.120Z,3.60
2017-11-26T23:10:25.004Z,3.60
2017-11-26T23:12:53.484Z,3.50
2017-11-26T23:15:22.316Z,3.40
2017-11-26T23:17:51.228Z,3.40
2017-11-26T23:20:18.798Z,3.40
2017-11-26T23:22:46.267Z,3.30
2017-11-26T23:25:13.765Z,3.30
2017-11-26T23:27:42.137Z,3.30
2017-11-26T23:30:10.632Z,3.40
2017-11-26T23:32:39.550Z,3.40
2017-11-26T23:35:07.040Z,3.40
2017-11-26T23:37:34.497Z,3.40
2017-11-26T23:40:01.984Z,3.40
2017-11-26T23:42:29.456Z,3.40
2017-11-26T23:44:57.724Z,3.50
2017-11-26T23:47:26.384Z,3.50
2017-11-26T23:49:53.874Z,3.50
2017-11-26T23:52:22.160Z,3.50
2017-11-26T23:54:50.383Z,3.60
2017-11-26T23:57:17.880Z,3.50
2017-11-26T23:59:46.243Z,3.60
